Discovery — 3FII9 — position and weather

sailwx.info

Track history (hours):
 
Tides and Currents Weather Stations Pressure Air Temp Water Temp Dewpoint Dewpoint Depression Visibility Wind Speed Wind Dir Waves Ship Positions

Discovery

Operator: V Ships Leisure SAM

Last reported at 2020-Sep-22 09:47 UTC. Time now 2020-Sep-28 13:05 UTC.
Position N 33°59' E 134°53'.

Length 177 m; draft 10.2 m.

Type: Cargo ship. MMSI: 353389000.

Date/timePositionNaut miles runAvg speedWind from/ knotsBaromVisibWave heightAir tempDewpointWater temp
2020-Sep-22 09:47N 33°59' E 134°53'411.8
2020-Sep-22 09:24N 34°03' E 134°55'1813.0
2020-Sep-22 08:00N 34°20' E 134°60'714.8
2020-Sep-22 07:30N 34°26' E 135°06'714.6
2020-Sep-22 07:00N 34°30' E 135°13'11 3.2
2020-Sep-22 03:28N 34°34' E 135°26'0 0.0
2020-Sep-21 22:58N 34°34' E 135°26'0 0.0
2020-Sep-21 21:58N 34°34' E 135°26'0 0.0
2020-Sep-21 21:28N 34°34' E 135°26'0 0.0
2020-Sep-21 20:28N 34°34' E 135°26'0 0.0
2020-Sep-21 17:22N 34°34' E 135°26'0 0.0
2020-Sep-21 15:52N 34°34' E 135°26'0 0.0
2020-Sep-21 01:30N 34°34' E 135°26'3 3.4
2020-Sep-21 00:30N 34°33' E 135°22'1 1.4
2020-Sep-20 23:29N 34°34' E 135°20'0 0.0
2020-Sep-20 19:29N 34°34' E 135°20'0 0.0
2020-Sep-20 18:56N 34°34' E 135°20'0 0.0
2020-Sep-20 17:50N 34°34' E 135°20'0 0.0
2020-Sep-20 17:26N 34°34' E 135°20'0 0.0
2020-Sep-20 16:59N 34°34' E 135°20'0 0.0
2020-Sep-20 16:29N 34°34' E 135°20'0 0.0
2020-Sep-20 15:59N 34°34' E 135°20'0 0.0
2020-Sep-20 14:26N 34°34' E 135°20'0 0.0
2020-Sep-20 12:29N 34°34' E 135°20'0 0.2
2020-Sep-20 11:59N 34°34' E 135°21'0 0.0
2020-Sep-20 11:29N 34°34' E 135°21'0 0.0
2020-Sep-20 10:29N 34°34' E 135°21'0 0.0
2020-Sep-20 08:29N 34°34' E 135°21'0 0.0
2020-Sep-20 06:59N 34°34' E 135°21'0 0.1
2020-Sep-20 05:59N 34°34' E 135°20'  
Track history (hours):
 
Tides and Currents Weather Stations Pressure Air Temp Water Temp Dewpoint Dewpoint Depression Visibility Wind Speed Wind Dir Waves Ship Positions

Discovery

Operator: V Ships Leisure SAM

Last reported at 2020-Sep-22 09:47 UTC. Time now 2020-Sep-28 13:05 UTC.
Position N 33°59' E 134°53'.

Length 177 m; draft 10.2 m.

Type: Cargo ship. MMSI: 353389000.

Date/timePositionNaut miles runAvg speedWind from/ knotsBaromVisibWave heightAir tempDewpointWater temp
2020-Sep-22 09:47N 33°59' E 134°53'411.8
2020-Sep-22 09:24N 34°03' E 134°55'1813.0
2020-Sep-22 08:00N 34°20' E 134°60'714.8
2020-Sep-22 07:30N 34°26' E 135°06'714.6
2020-Sep-22 07:00N 34°30' E 135°13'11 3.2
2020-Sep-22 03:28N 34°34' E 135°26'0 0.0
2020-Sep-21 22:58N 34°34' E 135°26'0 0.0
2020-Sep-21 21:58N 34°34' E 135°26'0 0.0
2020-Sep-21 21:28N 34°34' E 135°26'0 0.0
2020-Sep-21 20:28N 34°34' E 135°26'0 0.0
2020-Sep-21 17:22N 34°34' E 135°26'0 0.0
2020-Sep-21 15:52N 34°34' E 135°26'0 0.0
2020-Sep-21 01:30N 34°34' E 135°26'3 3.4
2020-Sep-21 00:30N 34°33' E 135°22'1 1.4
2020-Sep-20 23:29N 34°34' E 135°20'0 0.0
2020-Sep-20 19:29N 34°34' E 135°20'0 0.0
2020-Sep-20 18:56N 34°34' E 135°20'0 0.0
2020-Sep-20 17:50N 34°34' E 135°20'0 0.0
2020-Sep-20 17:26N 34°34' E 135°20'0 0.0
2020-Sep-20 16:59N 34°34' E 135°20'0 0.0
2020-Sep-20 16:29N 34°34' E 135°20'0 0.0
2020-Sep-20 15:59N 34°34' E 135°20'0 0.0
2020-Sep-20 14:26N 34°34' E 135°20'0 0.0
2020-Sep-20 12:29N 34°34' E 135°20'0 0.2
2020-Sep-20 11:59N 34°34' E 135°21'0 0.0
2020-Sep-20 11:29N 34°34' E 135°21'0 0.0
2020-Sep-20 10:29N 34°34' E 135°21'0 0.0
2020-Sep-20 08:29N 34°34' E 135°21'0 0.0
2020-Sep-20 06:59N 34°34' E 135°21'0 0.1
2020-Sep-20 05:59N 34°34' E 135°20'  

Dump ship's entire track history